sensor_id;sensor_type;location;lat;lon;timestamp;P1;durP1;ratioP1;P2;durP2;ratioP2
15082;SDS011;7640;53.116;6.878;2024-03-02T00:02:14;6.13;;;4.70;;
15082;SDS011;7640;53.116;6.878;2024-03-02T00:04:46;7.47;;;5.67;;
15082;SDS011;7640;53.116;6.878;2024-03-02T00:07:17;7.87;;;5.43;;
15082;SDS011;7640;53.116;6.878;2024-03-02T00:09:53;6.53;;;5.20;;
15082;SDS011;7640;53.116;6.878;2024-03-02T00:12:23;7.87;;;6.30;;
15082;SDS011;7640;53.116;6.878;2024-03-02T00:14:56;7.67;;;6.00;;
15082;SDS011;7640;53.116;6.878;2024-03-02T00:17:32;9.23;;;6.70;;
15082;SDS011;7640;53.116;6.878;2024-03-02T00:20:03;8.13;;;6.00;;
15082;SDS011;7640;53.116;6.878;2024-03-02T00:22:48;8.40;;;6.23;;
15082;SDS011;7640;53.116;6.878;2024-03-02T00:25:20;8.77;;;6.20;;
15082;SDS011;7640;53.116;6.878;2024-03-02T00:27:58;8.00;;;6.33;;
15082;SDS011;7640;53.116;6.878;2024-03-02T00:30:58;8.53;;;6.80;;
15082;SDS011;7640;53.116;6.878;2024-03-02T00:33:52;8.63;;;6.57;;
15082;SDS011;7640;53.116;6.878;2024-03-02T00:36:28;8.77;;;6.77;;
15082;SDS011;7640;53.116;6.878;2024-03-02T00:39:02;9.37;;;7.03;;
15082;SDS011;7640;53.116;6.878;2024-03-02T00:41:35;9.20;;;7.07;;
15082;SDS011;7640;53.116;6.878;2024-03-02T00:44:14;8.13;;;6.43;;
15082;SDS011;7640;53.116;6.878;2024-03-02T00:46:50;8.83;;;6.57;;
15082;SDS011;7640;53.116;6.878;2024-03-02T00:49:28;9.00;;;7.00;;
15082;SDS011;7640;53.116;6.878;2024-03-02T00:51:59;9.80;;;6.80;;
15082;SDS011;7640;53.116;6.878;2024-03-02T00:54:32;9.57;;;6.73;;
15082;SDS011;7640;53.116;6.878;2024-03-02T00:57:04;9.63;;;6.97;;
15082;SDS011;7640;53.116;6.878;2024-03-02T00:59:34;10.17;;;7.60;;
15082;SDS011;7640;53.116;6.878;2024-03-02T01:02:08;9.57;;;6.70;;
15082;SDS011;7640;53.116;6.878;2024-03-02T01:04:45;10.97;;;7.50;;
15082;SDS011;7640;53.116;6.878;2024-03-02T01:07:29;8.23;;;6.27;;
15082;SDS011;7640;53.116;6.878;2024-03-02T01:10:01;8.13;;;6.53;;
15082;SDS011;7640;53.116;6.878;2024-03-02T01:12:41;9.33;;;6.50;;
15082;SDS011;7640;53.116;6.878;2024-03-02T01:15:21;10.37;;;6.60;;
15082;SDS011;7640;53.116;6.878;2024-03-02T01:17:53;8.20;;;6.53;;
15082;SDS011;7640;53.116;6.878;2024-03-02T01:20:38;9.77;;;6.80;;
15082;SDS011;7640;53.116;6.878;2024-03-02T01:23:14;9.63;;;7.00;;
15082;SDS011;7640;53.116;6.878;2024-03-02T01:25:53;9.63;;;7.10;;
15082;SDS011;7640;53.116;6.878;2024-03-02T01:28:27;8.40;;;7.00;;
15082;SDS011;7640;53.116;6.878;2024-03-02T01:31:20;8.90;;;6.63;;
15082;SDS011;7640;53.116;6.878;2024-03-02T01:34:07;10.20;;;7.17;;
15082;SDS011;7640;53.116;6.878;2024-03-02T01:36:52;8.47;;;6.90;;
15082;SDS011;7640;53.116;6.878;2024-03-02T01:39:27;8.10;;;6.00;;
15082;SDS011;7640;53.116;6.878;2024-03-02T01:41:58;8.63;;;6.00;;
15082;SDS011;7640;53.116;6.878;2024-03-02T01:44:30;10.03;;;6.90;;
15082;SDS011;7640;53.116;6.878;2024-03-02T01:47:01;8.07;;;6.13;;
15082;SDS011;7640;53.116;6.878;2024-03-02T01:49:34;7.93;;;6.13;;
15082;SDS011;7640;53.116;6.878;2024-03-02T01:55:15;8.67;;;6.10;;
15082;SDS011;7640;53.116;6.878;2024-03-02T01:57:54;9.00;;;6.60;;
15082;SDS011;7640;53.116;6.878;2024-03-02T02:00:26;9.17;;;6.50;;
15082;SDS011;7640;53.116;6.878;2024-03-02T02:02:58;7.97;;;5.93;;
15082;SDS011;7640;53.116;6.878;2024-03-02T02:05:34;9.73;;;6.87;;
15082;SDS011;7640;53.116;6.878;2024-03-02T02:08:17;7.73;;;5.60;;
15082;SDS011;7640;53.116;6.878;2024-03-02T02:10:48;8.93;;;5.73;;
15082;SDS011;7640;53.116;6.878;2024-03-02T02:13:20;8.30;;;6.30;;
15082;SDS011;7640;53.116;6.878;2024-03-02T02:15:50;7.73;;;6.10;;
15082;SDS011;7640;53.116;6.878;2024-03-02T02:18:21;8.30;;;6.53;;
15082;SDS011;7640;53.116;6.878;2024-03-02T02:20:54;6.73;;;5.83;;
15082;SDS011;7640;53.116;6.878;2024-03-02T02:23:28;9.40;;;6.27;;
15082;SDS011;7640;53.116;6.878;2024-03-02T02:26:01;6.63;;;5.40;;
15082;SDS011;7640;53.116;6.878;2024-03-02T02:28:33;7.47;;;5.63;;
15082;SDS011;7640;53.116;6.878;2024-03-02T02:31:06;8.90;;;5.97;;
15082;SDS011;7640;53.116;6.878;2024-03-02T02:33:44;7.90;;;5.73;;
15082;SDS011;7640;53.116;6.878;2024-03-02T02:36:17;8.93;;;6.07;;
15082;SDS011;7640;53.116;6.878;2024-03-02T02:38:51;6.83;;;5.17;;
15082;SDS011;7640;53.116;6.878;2024-03-02T02:41:25;5.37;;;4.73;;
15082;SDS011;7640;53.116;6.878;2024-03-02T02:43:56;7.03;;;5.30;;
15082;SDS011;7640;53.116;6.878;2024-03-02T02:46:29;6.40;;;5.27;;
15082;SDS011;7640;53.116;6.878;2024-03-02T02:48:59;6.53;;;5.47;;
15082;SDS011;7640;53.116;6.878;2024-03-02T02:51:35;6.30;;;4.97;;
15082;SDS011;7640;53.116;6.878;2024-03-02T02:54:09;6.73;;;5.10;;
15082;SDS011;7640;53.116;6.878;2024-03-02T02:56:42;6.90;;;5.03;;
15082;SDS011;7640;53.116;6.878;2024-03-02T02:59:13;6.43;;;4.83;;
15082;SDS011;7640;53.116;6.878;2024-03-02T03:01:44;7.47;;;4.50;;
15082;SDS011;7640;53.116;6.878;2024-03-02T03:04:21;6.10;;;4.87;;
15082;SDS011;7640;53.116;6.878;2024-03-02T03:06:52;6.03;;;5.00;;
15082;SDS011;7640;53.116;6.878;2024-03-02T03:09:33;7.10;;;4.83;;
15082;SDS011;7640;53.116;6.878;2024-03-02T03:12:07;5.80;;;4.83;;
15082;SDS011;7640;53.116;6.878;2024-03-02T03:14:38;5.17;;;4.57;;
15082;SDS011;7640;53.116;6.878;2024-03-02T03:17:12;5.53;;;4.87;;
15082;SDS011;7640;53.116;6.878;2024-03-02T03:19:55;5.80;;;4.90;;
15082;SDS011;7640;53.116;6.878;2024-03-02T03:22:29;6.03;;;5.00;;
15082;SDS011;7640;53.116;6.878;2024-03-02T03:25:13;4.77;;;4.20;;
15082;SDS011;7640;53.116;6.878;2024-03-02T03:27:57;5.20;;;4.33;;
15082;SDS011;7640;53.116;6.878;2024-03-02T03:30:32;6.07;;;4.17;;
15082;SDS011;7640;53.116;6.878;2024-03-02T03:33:11;4.43;;;3.97;;
15082;SDS011;7640;53.116;6.878;2024-03-02T03:35:45;4.83;;;4.13;;
15082;SDS011;7640;53.116;6.878;2024-03-02T03:38:25;4.70;;;4.20;;
15082;SDS011;7640;53.116;6.878;2024-03-02T03:43:55;8.07;;;3.87;;
15082;SDS011;7640;53.116;6.878;2024-03-02T03:47:06;4.73;;;3.77;;
15082;SDS011;7640;53.116;6.878;2024-03-02T03:49:44;4.50;;;3.77;;
15082;SDS011;7640;53.116;6.878;2024-03-02T03:52:18;5.50;;;4.17;;
15082;SDS011;7640;53.116;6.878;2024-03-02T03:54:51;5.67;;;4.20;;
15082;SDS011;7640;53.116;6.878;2024-03-02T03:57:44;5.27;;;3.63;;
15082;SDS011;7640;53.116;6.878;2024-03-02T04:00:22;5.57;;;4.27;;
15082;SDS011;7640;53.116;6.878;2024-03-02T04:02:56;4.53;;;3.97;;
15082;SDS011;7640;53.116;6.878;2024-03-02T04:05:43;6.23;;;4.10;;
15082;SDS011;7640;53.116;6.878;2024-03-02T04:08:34;4.80;;;3.50;;
15082;SDS011;7640;53.116;6.878;2024-03-02T04:11:16;5.87;;;3.90;;
15082;SDS011;7640;53.116;6.878;2024-03-02T04:13:53;5.27;;;3.90;;
15082;SDS011;7640;53.116;6.878;2024-03-02T04:16:26;5.37;;;3.93;;
15082;SDS011;7640;53.116;6.878;2024-03-02T04:19:07;4.43;;;3.50;;
15082;SDS011;7640;53.116;6.878;2024-03-02T04:21:52;5.33;;;4.37;;
15082;SDS011;7640;53.116;6.878;2024-03-02T04:24:44;7.53;;;4.30;;
15082;SDS011;7640;53.116;6.878;2024-03-02T04:33:46;4.17;;;3.70;;
15082;SDS011;7640;53.116;6.878;2024-03-02T04:36:23;4.77;;;4.27;;
15082;SDS011;7640;53.116;6.878;2024-03-02T04:38:57;6.03;;;4.10;;
15082;SDS011;7640;53.116;6.878;2024-03-02T04:41:30;4.60;;;4.07;;
15082;SDS011;7640;53.116;6.878;2024-03-02T04:44:02;4.63;;;3.80;;
15082;SDS011;7640;53.116;6.878;2024-03-02T04:46:52;6.27;;;3.90;;
15082;SDS011;7640;53.116;6.878;2024-03-02T04:49:38;4.60;;;3.90;;
15082;SDS011;7640;53.116;6.878;2024-03-02T04:52:25;6.23;;;4.20;;
15082;SDS011;7640;53.116;6.878;2024-03-02T04:54:58;4.67;;;4.13;;
15082;SDS011;7640;53.116;6.878;2024-03-02T04:58:15;4.67;;;4.17;;
15082;SDS011;7640;53.116;6.878;2024-03-02T05:00:49;4.20;;;3.80;;
15082;SDS011;7640;53.116;6.878;2024-03-02T05:03:20;4.67;;;3.80;;
15082;SDS011;7640;53.116;6.878;2024-03-02T05:05:50;4.73;;;3.90;;
15082;SDS011;7640;53.116;6.878;2024-03-02T05:08:24;5.00;;;3.80;;
15082;SDS011;7640;53.116;6.878;2024-03-02T05:10:55;5.57;;;4.00;;
15082;SDS011;7640;53.116;6.878;2024-03-02T05:14:02;7.77;;;4.10;;
15082;SDS011;7640;53.116;6.878;2024-03-02T05:16:53;5.20;;;3.37;;
15082;SDS011;7640;53.116;6.878;2024-03-02T05:19:27;5.07;;;4.10;;
15082;SDS011;7640;53.116;6.878;2024-03-02T05:21:57;4.93;;;4.30;;
15082;SDS011;7640;53.116;6.878;2024-03-02T05:24:28;4.60;;;3.70;;
15082;SDS011;7640;53.116;6.878;2024-03-02T05:27:09;6.60;;;4.40;;
15082;SDS011;7640;53.116;6.878;2024-03-02T05:29:46;4.80;;;4.13;;
15082;SDS011;7640;53.116;6.878;2024-03-02T05:32:52;7.03;;;4.50;;
15082;SDS011;7640;53.116;6.878;2024-03-02T05:35:30;4.80;;;4.10;;
15082;SDS011;7640;53.116;6.878;2024-03-02T05:38:00;6.87;;;4.03;;
15082;SDS011;7640;53.116;6.878;2024-03-02T05:40:30;4.40;;;4.00;;
15082;SDS011;7640;53.116;6.878;2024-03-02T05:43:03;6.00;;;4.43;;
15082;SDS011;7640;53.116;6.878;2024-03-02T05:45:38;7.10;;;4.43;;
15082;SDS011;7640;53.116;6.878;2024-03-02T05:48:38;5.03;;;4.10;;
15082;SDS011;7640;53.116;6.878;2024-03-02T05:51:32;6.43;;;4.70;;
15082;SDS011;7640;53.116;6.878;2024-03-02T05:54:04;4.87;;;4.40;;
15082;SDS011;7640;53.116;6.878;2024-03-02T05:57:05;5.90;;;4.80;;
15082;SDS011;7640;53.116;6.878;2024-03-02T06:00:33;6.80;;;4.63;;
15082;SDS011;7640;53.116;6.878;2024-03-02T06:03:15;6.13;;;4.47;;
15082;SDS011;7640;53.116;6.878;2024-03-02T06:05:57;5.97;;;5.00;;
15082;SDS011;7640;53.116;6.878;2024-03-02T06:11:24;8.20;;;4.90;;
15082;SDS011;7640;53.116;6.878;2024-03-02T06:13:55;7.57;;;4.93;;
15082;SDS011;7640;53.116;6.878;2024-03-02T06:16:33;8.17;;;5.17;;
15082;SDS011;7640;53.116;6.878;2024-03-02T06:19:22;5.83;;;4.80;;
15082;SDS011;7640;53.116;6.878;2024-03-02T06:22:18;10.97;;;5.73;;
15082;SDS011;7640;53.116;6.878;2024-03-02T06:24:58;6.40;;;5.10;;
15082;SDS011;7640;53.116;6.878;2024-03-02T06:27:32;6.17;;;5.00;;
15082;SDS011;7640;53.116;6.878;2024-03-02T06:30:06;6.03;;;4.73;;
15082;SDS011;7640;53.116;6.878;2024-03-02T06:32:44;6.57;;;5.23;;
15082;SDS011;7640;53.116;6.878;2024-03-02T06:35:17;5.77;;;4.73;;
15082;SDS011;7640;53.116;6.878;2024-03-02T06:37:56;5.60;;;4.70;;
15082;SDS011;7640;53.116;6.878;2024-03-02T06:40:29;7.07;;;5.10;;
15082;SDS011;7640;53.116;6.878;2024-03-02T06:42:59;7.20;;;4.60;;
15082;SDS011;7640;53.116;6.878;2024-03-02T06:45:31;6.10;;;5.00;;
15082;SDS011;7640;53.116;6.878;2024-03-02T06:48:05;5.17;;;4.67;;
15082;SDS011;7640;53.116;6.878;2024-03-02T06:50:39;5.53;;;4.70;;
15082;SDS011;7640;53.116;6.878;2024-03-02T06:53:35;5.73;;;4.63;;
15082;SDS011;7640;53.116;6.878;2024-03-02T06:59:19;5.93;;;4.83;;
15082;SDS011;7640;53.116;6.878;2024-03-02T07:01:57;8.27;;;5.17;;
15082;SDS011;7640;53.116;6.878;2024-03-02T07:04:41;6.53;;;5.20;;
15082;SDS011;7640;53.116;6.878;2024-03-02T07:07:21;5.20;;;4.70;;
15082;SDS011;7640;53.116;6.878;2024-03-02T07:09:53;6.50;;;4.77;;
15082;SDS011;7640;53.116;6.878;2024-03-02T07:12:32;5.73;;;4.60;;
15082;SDS011;7640;53.116;6.878;2024-03-02T07:15:14;6.97;;;4.70;;
15082;SDS011;7640;53.116;6.878;2024-03-02T07:18:34;9.90;;;5.27;;
15082;SDS011;7640;53.116;6.878;2024-03-02T07:21:30;8.13;;;5.10;;
15082;SDS011;7640;53.116;6.878;2024-03-02T07:24:04;7.10;;;4.57;;
15082;SDS011;7640;53.116;6.878;2024-03-02T07:26:56;5.83;;;4.57;;
15082;SDS011;7640;53.116;6.878;2024-03-02T07:29:33;6.63;;;4.50;;
15082;SDS011;7640;53.116;6.878;2024-03-02T07:32:30;6.07;;;4.67;;
15082;SDS011;7640;53.116;6.878;2024-03-02T07:35:12;4.60;;;4.10;;
15082;SDS011;7640;53.116;6.878;2024-03-02T07:37:59;6.60;;;4.70;;
15082;SDS011;7640;53.116;6.878;2024-03-02T07:40:33;6.30;;;4.37;;
15082;SDS011;7640;53.116;6.878;2024-03-02T07:43:06;6.33;;;4.70;;
15082;SDS011;7640;53.116;6.878;2024-03-02T07:45:52;4.23;;;3.73;;
15082;SDS011;7640;53.116;6.878;2024-03-02T07:48:27;5.10;;;4.00;;
15082;SDS011;7640;53.116;6.878;2024-03-02T07:50:58;5.60;;;4.20;;
15082;SDS011;7640;53.116;6.878;2024-03-02T07:53:30;5.20;;;4.03;;
15082;SDS011;7640;53.116;6.878;2024-03-02T07:56:06;4.90;;;3.97;;
15082;SDS011;7640;53.116;6.878;2024-03-02T07:59:12;4.70;;;4.00;;
15082;SDS011;7640;53.116;6.878;2024-03-02T08:02:07;4.93;;;3.90;;
15082;SDS011;7640;53.116;6.878;2024-03-02T08:04:54;5.87;;;3.77;;
15082;SDS011;7640;53.116;6.878;2024-03-02T08:07:51;5.37;;;3.90;;
15082;SDS011;7640;53.116;6.878;2024-03-02T08:10:44;5.40;;;4.00;;
15082;SDS011;7640;53.116;6.878;2024-03-02T08:13:27;4.97;;;3.60;;
15082;SDS011;7640;53.116;6.878;2024-03-02T08:16:00;6.20;;;4.10;;
15082;SDS011;7640;53.116;6.878;2024-03-02T08:18:42;5.13;;;4.60;;
15082;SDS011;7640;53.116;6.878;2024-03-02T08:21:19;6.43;;;5.30;;
15082;SDS011;7640;53.116;6.878;2024-03-02T08:24:02;7.17;;;4.87;;
15082;SDS011;7640;53.116;6.878;2024-03-02T08:26:53;4.83;;;4.20;;
15082;SDS011;7640;53.116;6.878;2024-03-02T08:30:07;4.87;;;4.37;;
15082;SDS011;7640;53.116;6.878;2024-03-02T08:33:05;5.63;;;4.27;;
15082;SDS011;7640;53.116;6.878;2024-03-02T08:35:50;6.67;;;4.40;;
15082;SDS011;7640;53.116;6.878;2024-03-02T08:38:30;4.10;;;3.70;;
15082;SDS011;7640;53.116;6.878;2024-03-02T08:41:12;5.33;;;3.90;;
15082;SDS011;7640;53.116;6.878;2024-03-02T08:43:51;4.17;;;3.67;;
15082;SDS011;7640;53.116;6.878;2024-03-02T08:46:31;4.80;;;3.80;;
15082;SDS011;7640;53.116;6.878;2024-03-02T08:49:05;4.67;;;4.13;;
15082;SDS011;7640;53.116;6.878;2024-03-02T08:51:50;4.93;;;3.43;;
15082;SDS011;7640;53.116;6.878;2024-03-02T08:54:27;5.37;;;3.63;;
15082;SDS011;7640;53.116;6.878;2024-03-02T08:57:01;3.93;;;3.50;;
15082;SDS011;7640;53.116;6.878;2024-03-02T08:59:38;4.83;;;3.93;;
15082;SDS011;7640;53.116;6.878;2024-03-02T09:02:12;5.57;;;3.83;;
15082;SDS011;7640;53.116;6.878;2024-03-02T09:04:57;4.10;;;3.27;;
15082;SDS011;7640;53.116;6.878;2024-03-02T09:07:32;4.77;;;3.43;;
15082;SDS011;7640;53.116;6.878;2024-03-02T09:10:08;5.93;;;3.70;;
15082;SDS011;7640;53.116;6.878;2024-03-02T09:12:49;4.43;;;3.30;;
15082;SDS011;7640;53.116;6.878;2024-03-02T09:15:25;4.17;;;3.33;;
15082;SDS011;7640;53.116;6.878;2024-03-02T09:17:59;3.90;;;3.37;;
15082;SDS011;7640;53.116;6.878;2024-03-02T09:20:32;4.70;;;3.30;;
15082;SDS011;7640;53.116;6.878;2024-03-02T09:23:26;4.53;;;3.10;;
15082;SDS011;7640;53.116;6.878;2024-03-02T09:25:57;5.50;;;3.10;;
15082;SDS011;7640;53.116;6.878;2024-03-02T09:28:34;3.17;;;2.73;;
15082;SDS011;7640;53.116;6.878;2024-03-02T09:31:18;3.30;;;3.00;;
15082;SDS011;7640;53.116;6.878;2024-03-02T09:36:54;4.37;;;3.00;;
15082;SDS011;7640;53.116;6.878;2024-03-02T09:39:29;6.00;;;3.20;;
15082;SDS011;7640;53.116;6.878;2024-03-02T09:42:25;3.83;;;3.27;;
15082;SDS011;7640;53.116;6.878;2024-03-02T09:45:05;4.57;;;3.30;;
15082;SDS011;7640;53.116;6.878;2024-03-02T09:47:56;4.33;;;3.50;;
15082;SDS011;7640;53.116;6.878;2024-03-02T09:50:31;4.70;;;3.40;;
15082;SDS011;7640;53.116;6.878;2024-03-02T09:53:23;6.67;;;3.40;;
15082;SDS011;7640;53.116;6.878;2024-03-02T09:56:03;5.37;;;3.63;;
15082;SDS011;7640;53.116;6.878;2024-03-02T09:58:50;3.97;;;3.17;;
15082;SDS011;7640;53.116;6.878;2024-03-02T10:01:33;4.13;;;3.27;;
15082;SDS011;7640;53.116;6.878;2024-03-02T10:04:32;5.47;;;3.07;;
15082;SDS011;7640;53.116;6.878;2024-03-02T10:07:34;4.13;;;2.50;;
15082;SDS011;7640;53.116;6.878;2024-03-02T10:10:17;4.57;;;2.40;;
15082;SDS011;7640;53.116;6.878;2024-03-02T10:12:57;3.60;;;2.70;;
15082;SDS011;7640;53.116;6.878;2024-03-02T10:16:00;3.03;;;2.10;;
15082;SDS011;7640;53.116;6.878;2024-03-02T10:18:55;3.07;;;2.43;;
15082;SDS011;7640;53.116;6.878;2024-03-02T10:21:29;2.73;;;2.20;;
15082;SDS011;7640;53.116;6.878;2024-03-02T10:24:21;3.80;;;2.30;;
15082;SDS011;7640;53.116;6.878;2024-03-02T10:26:55;2.83;;;2.23;;
15082;SDS011;7640;53.116;6.878;2024-03-02T10:29:34;3.07;;;2.30;;
15082;SDS011;7640;53.116;6.878;2024-03-02T10:32:23;3.10;;;2.27;;
15082;SDS011;7640;53.116;6.878;2024-03-02T10:35:06;2.77;;;2.30;;
15082;SDS011;7640;53.116;6.878;2024-03-02T10:37:53;3.23;;;2.30;;
15082;SDS011;7640;53.116;6.878;2024-03-02T10:40:26;2.90;;;2.30;;
15082;SDS011;7640;53.116;6.878;2024-03-02T10:43:15;2.20;;;2.00;;
15082;SDS011;7640;53.116;6.878;2024-03-02T10:45:58;4.10;;;1.60;;
15082;SDS011;7640;53.116;6.878;2024-03-02T10:48:32;3.23;;;1.53;;
15082;SDS011;7640;53.116;6.878;2024-03-02T10:51:23;3.10;;;1.50;;
15082;SDS011;7640;53.116;6.878;2024-03-02T10:54:05;3.13;;;1.60;;
15082;SDS011;7640;53.116;6.878;2024-03-02T10:56:50;4.17;;;2.00;;
15082;SDS011;7640;53.116;6.878;2024-03-02T10:59:49;1.97;;;1.73;;
15082;SDS011;7640;53.116;6.878;2024-03-02T11:02:26;2.93;;;2.03;;
15082;SDS011;7640;53.116;6.878;2024-03-02T11:05:11;2.33;;;2.10;;
15082;SDS011;7640;53.116;6.878;2024-03-02T11:08:04;2.93;;;2.33;;
15082;SDS011;7640;53.116;6.878;2024-03-02T11:10:41;4.63;;;3.30;;
15082;SDS011;7640;53.116;6.878;2024-03-02T11:13:24;4.33;;;3.67;;
15082;SDS011;7640;53.116;6.878;2024-03-02T11:16:27;4.90;;;4.40;;
15082;SDS011;7640;53.116;6.878;2024-03-02T11:19:11;4.70;;;4.30;;
15082;SDS011;7640;53.116;6.878;2024-03-02T11:21:45;5.70;;;4.70;;
15082;SDS011;7640;53.116;6.878;2024-03-02T11:24:28;6.03;;;4.57;;
15082;SDS011;7640;53.116;6.878;2024-03-02T11:27:04;5.10;;;4.60;;
15082;SDS011;7640;53.116;6.878;2024-03-02T11:29:46;6.10;;;4.63;;
15082;SDS011;7640;53.116;6.878;2024-03-02T11:32:26;5.30;;;4.80;;
15082;SDS011;7640;53.116;6.878;2024-03-02T11:35:00;5.23;;;4.80;;
15082;SDS011;7640;53.116;6.878;2024-03-02T11:37:32;5.03;;;4.53;;
15082;SDS011;7640;53.116;6.878;2024-03-02T11:40:05;5.30;;;4.13;;
15082;SDS011;7640;53.116;6.878;2024-03-02T11:42:40;4.70;;;3.97;;
15082;SDS011;7640;53.116;6.878;2024-03-02T11:45:16;4.43;;;4.03;;
15082;SDS011;7640;53.116;6.878;2024-03-02T11:47:52;4.53;;;4.13;;
15082;SDS011;7640;53.116;6.878;2024-03-02T11:50:30;5.23;;;4.33;;
15082;SDS011;7640;53.116;6.878;2024-03-02T11:53:27;5.53;;;3.90;;
15082;SDS011;7640;53.116;6.878;2024-03-02T11:56:03;5.37;;;4.80;;
15082;SDS011;7640;53.116;6.878;2024-03-02T11:58:39;7.33;;;5.43;;
15082;SDS011;7640;53.116;6.878;2024-03-02T12:01:18;6.60;;;6.00;;
15082;SDS011;7640;53.116;6.878;2024-03-02T12:03:51;6.23;;;5.57;;
15082;SDS011;7640;53.116;6.878;2024-03-02T12:06:26;7.47;;;6.87;;
15082;SDS011;7640;53.116;6.878;2024-03-02T12:09:01;7.30;;;5.80;;
15082;SDS011;7640;53.116;6.878;2024-03-02T12:11:43;6.80;;;5.50;;
15082;SDS011;7640;53.116;6.878;2024-03-02T12:14:22;6.00;;;5.50;;
15082;SDS011;7640;53.116;6.878;2024-03-02T12:17:00;6.70;;;5.33;;
15082;SDS011;7640;53.116;6.878;2024-03-02T12:19:34;5.97;;;5.40;;
15082;SDS011;7640;53.116;6.878;2024-03-02T12:22:15;8.17;;;5.73;;
15082;SDS011;7640;53.116;6.878;2024-03-02T12:24:49;6.43;;;5.63;;
15082;SDS011;7640;53.116;6.878;2024-03-02T12:27:42;6.20;;;5.60;;
15082;SDS011;7640;53.116;6.878;2024-03-02T12:30:26;5.13;;;4.70;;
15082;SDS011;7640;53.116;6.878;2024-03-02T12:33:00;4.87;;;4.47;;
15082;SDS011;7640;53.116;6.878;2024-03-02T12:35:40;6.27;;;5.00;;
15082;SDS011;7640;53.116;6.878;2024-03-02T12:38:13;5.80;;;4.87;;
15082;SDS011;7640;53.116;6.878;2024-03-02T12:40:48;5.37;;;4.87;;
15082;SDS011;7640;53.116;6.878;2024-03-02T12:43:23;6.20;;;5.57;;
15082;SDS011;7640;53.116;6.878;2024-03-02T12:46:07;7.03;;;4.57;;
15082;SDS011;7640;53.116;6.878;2024-03-02T12:49:07;5.40;;;4.90;;
15082;SDS011;7640;53.116;6.878;2024-03-02T12:52:01;4.83;;;4.30;;
15082;SDS011;7640;53.116;6.878;2024-03-02T12:54:41;4.53;;;4.13;;
15082;SDS011;7640;53.116;6.878;2024-03-02T12:57:17;4.63;;;4.20;;
15082;SDS011;7640;53.116;6.878;2024-03-02T12:59:52;4.30;;;3.90;;
15082;SDS011;7640;53.116;6.878;2024-03-02T13:02:32;4.20;;;3.80;;
15082;SDS011;7640;53.116;6.878;2024-03-02T13:05:11;4.40;;;4.00;;
15082;SDS011;7640;53.116;6.878;2024-03-02T13:08:06;5.07;;;3.97;;
15082;SDS011;7640;53.116;6.878;2024-03-02T13:10:56;4.33;;;3.87;;
15082;SDS011;7640;53.116;6.878;2024-03-02T13:13:33;6.13;;;4.23;;
15082;SDS011;7640;53.116;6.878;2024-03-02T13:16:23;4.40;;;4.00;;
15082;SDS011;7640;53.116;6.878;2024-03-02T13:19:17;4.30;;;3.70;;
15082;SDS011;7640;53.116;6.878;2024-03-02T13:22:16;4.23;;;3.83;;
15082;SDS011;7640;53.116;6.878;2024-03-02T13:24:57;4.07;;;3.50;;
15082;SDS011;7640;53.116;6.878;2024-03-02T13:27:50;3.50;;;3.20;;
15082;SDS011;7640;53.116;6.878;2024-03-02T13:31:12;3.60;;;3.23;;
15082;SDS011;7640;53.116;6.878;2024-03-02T13:34:01;3.80;;;3.50;;
15082;SDS011;7640;53.116;6.878;2024-03-02T13:36:39;3.53;;;3.23;;
15082;SDS011;7640;53.116;6.878;2024-03-02T13:39:25;4.00;;;3.10;;
15082;SDS011;7640;53.116;6.878;2024-03-02T13:41:59;3.37;;;3.07;;
15082;SDS011;7640;53.116;6.878;2024-03-02T13:44:42;3.73;;;3.17;;
15082;SDS011;7640;53.116;6.878;2024-03-02T13:47:23;3.60;;;3.30;;
15082;SDS011;7640;53.116;6.878;2024-03-02T13:49:58;3.27;;;2.97;;
15082;SDS011;7640;53.116;6.878;2024-03-02T13:52:32;4.00;;;3.53;;
15082;SDS011;7640;53.116;6.878;2024-03-02T13:55:03;3.57;;;3.10;;
15082;SDS011;7640;53.116;6.878;2024-03-02T13:57:38;3.28;;;3.00;;
15082;SDS011;7640;53.116;6.878;2024-03-02T14:00:27;3.95;;;3.13;;
15082;SDS011;7640;53.116;6.878;2024-03-02T14:03:17;4.13;;;3.05;;
15082;SDS011;7640;53.116;6.878;2024-03-02T14:06:01;3.63;;;2.83;;
15082;SDS011;7640;53.116;6.878;2024-03-02T14:08:39;3.33;;;3.03;;
15082;SDS011;7640;53.116;6.878;2024-03-02T14:11:22;3.83;;;3.40;;
15082;SDS011;7640;53.116;6.878;2024-03-02T14:13:54;4.03;;;3.53;;
15082;SDS011;7640;53.116;6.878;2024-03-02T14:17:14;3.83;;;3.47;;
15082;SDS011;7640;53.116;6.878;2024-03-02T14:19:51;3.87;;;3.47;;
15082;SDS011;7640;53.116;6.878;2024-03-02T14:22:28;6.40;;;3.27;;
15082;SDS011;7640;53.116;6.878;2024-03-02T14:25:12;6.37;;;3.40;;
15082;SDS011;7640;53.116;6.878;2024-03-02T14:27:52;5.63;;;3.40;;
15082;SDS011;7640;53.116;6.878;2024-03-02T14:30:46;4.73;;;3.47;;
15082;SDS011;7640;53.116;6.878;2024-03-02T14:33:25;3.80;;;3.40;;
15082;SDS011;7640;53.116;6.878;2024-03-02T14:35:57;3.50;;;3.20;;
15082;SDS011;7640;53.116;6.878;2024-03-02T14:38:48;3.50;;;3.20;;
15082;SDS011;7640;53.116;6.878;2024-03-02T14:41:43;3.80;;;3.40;;
15082;SDS011;7640;53.116;6.878;2024-03-02T14:45:37;3.90;;;3.50;;
15082;SDS011;7640;53.116;6.878;2024-03-02T14:48:51;4.60;;;3.20;;
15082;SDS011;7640;53.116;6.878;2024-03-02T14:51:40;3.30;;;3.00;;
15082;SDS011;7640;53.116;6.878;2024-03-02T14:54:39;3.20;;;2.90;;
15082;SDS011;7640;53.116;6.878;2024-03-02T14:57:41;3.67;;;3.00;;
15082;SDS011;7640;53.116;6.878;2024-03-02T15:00:51;3.47;;;3.17;;
15082;SDS011;7640;53.116;6.878;2024-03-02T15:03:58;4.10;;;3.17;;
15082;SDS011;7640;53.116;6.878;2024-03-02T15:06:34;3.30;;;2.97;;
15082;SDS011;7640;53.116;6.878;2024-03-02T15:09:11;3.40;;;3.10;;
15082;SDS011;7640;53.116;6.878;2024-03-02T15:11:56;4.27;;;3.20;;
15082;SDS011;7640;53.116;6.878;2024-03-02T15:14:35;4.40;;;3.37;;
15082;SDS011;7640;53.116;6.878;2024-03-02T15:17:17;4.20;;;3.40;;
15082;SDS011;7640;53.116;6.878;2024-03-02T15:20:10;3.47;;;3.17;;
15082;SDS011;7640;53.116;6.878;2024-03-02T15:22:55;4.00;;;3.67;;
15082;SDS011;7640;53.116;6.878;2024-03-02T15:25:27;4.30;;;3.90;;
15082;SDS011;7640;53.116;6.878;2024-03-02T15:28:04;4.27;;;3.87;;
15082;SDS011;7640;53.116;6.878;2024-03-02T15:30:37;5.17;;;4.10;;
15082;SDS011;7640;53.116;6.878;2024-03-02T15:33:09;6.40;;;4.07;;
15082;SDS011;7640;53.116;6.878;2024-03-02T15:35:44;4.60;;;4.10;;
15082;SDS011;7640;53.116;6.878;2024-03-02T15:38:15;5.33;;;4.37;;
15082;SDS011;7640;53.116;6.878;2024-03-02T15:40:59;4.63;;;4.20;;
15082;SDS011;7640;53.116;6.878;2024-03-02T15:43:30;5.27;;;4.50;;
15082;SDS011;7640;53.116;6.878;2024-03-02T15:46:05;5.90;;;4.23;;
15082;SDS011;7640;53.116;6.878;2024-03-02T15:49:05;7.03;;;4.60;;
15082;SDS011;7640;53.116;6.878;2024-03-02T15:51:54;5.07;;;4.23;;
15082;SDS011;7640;53.116;6.878;2024-03-02T15:54:33;6.10;;;4.00;;
15082;SDS011;7640;53.116;6.878;2024-03-02T15:58:04;5.00;;;4.40;;
15082;SDS011;7640;53.116;6.878;2024-03-02T16:01:02;4.90;;;4.50;;
15082;SDS011;7640;53.116;6.878;2024-03-02T16:03:41;4.43;;;4.03;;
15082;SDS011;7640;53.116;6.878;2024-03-02T16:10:33;4.47;;;4.07;;
15082;SDS011;7640;53.116;6.878;2024-03-02T16:13:58;4.80;;;4.30;;
15082;SDS011;7640;53.116;6.878;2024-03-02T16:17:11;5.10;;;3.97;;
15082;SDS011;7640;53.116;6.878;2024-03-02T16:19:56;4.37;;;3.97;;
15082;SDS011;7640;53.116;6.878;2024-03-02T16:25:59;5.93;;;3.70;;
15082;SDS011;7640;53.116;6.878;2024-03-02T16:28:38;4.10;;;3.60;;
15082;SDS011;7640;53.116;6.878;2024-03-02T16:31:36;3.80;;;3.40;;
15082;SDS011;7640;53.116;6.878;2024-03-02T16:34:32;4.73;;;3.37;;
15082;SDS011;7640;53.116;6.878;2024-03-02T16:37:32;4.40;;;3.70;;
15082;SDS011;7640;53.116;6.878;2024-03-02T16:40:40;5.17;;;3.30;;
15082;SDS011;7640;53.116;6.878;2024-03-02T16:43:50;3.70;;;3.10;;
15082;SDS011;7640;53.116;6.878;2024-03-02T16:46:48;5.07;;;3.77;;
15082;SDS011;7640;53.116;6.878;2024-03-02T16:49:35;4.50;;;3.13;;
15082;SDS011;7640;53.116;6.878;2024-03-02T16:52:13;4.40;;;3.63;;
15082;SDS011;7640;53.116;6.878;2024-03-02T16:54:58;4.47;;;3.80;;
15082;SDS011;7640;53.116;6.878;2024-03-02T16:57:33;4.43;;;3.70;;
15082;SDS011;7640;53.116;6.878;2024-03-02T17:00:13;5.03;;;3.83;;